SAAR/ROS METAR and TAF weather

Enter ICAO airport designator
Station Type Date Time Source
SAAR METAR 2020/01/21 09:09 UTC NOAA

SAAR 210909Z 18007KT 6000 -RA SCT003 SCT005 OVC018 23/23 Q1009


Station Type Date Time Source
SAAR Decoded METAR 2020/01/21 09:09 UTC NOAA

Rosario Aerodrome, Argentina (SAAR) 32-55S 060-47W 25M
Jan 21, 2020 - 04:09 AM EST / 2020.01.21 0909 UTC
Wind: from the S (180 degrees) at 8 MPH (7 KT):0
Visibility: 3 mile(s):0
Sky conditions: overcast
Weather: light rain
Temperature: 73 F (23 C)
Dew Point: 73 F (23 C)
Relative Humidity: 100%
Pressure (altimeter): 29.80 in. Hg (1009 hPa)
ob: SAAR 210909Z 18007KT 6000 -RA SCT003 SCT005 OVC018 23/23 Q1009
cycle: 9

Station Type Date Time Source
SAAR TAF 2020/01/21 06:24 UTC NOAA

TAF TAF SAAR 210500Z 2106/2206 VRB03KT 9999 SCT020 BKN090 TX31/2118Z TN24/2108Z
BECMG 2114/2116 11010KT 8000 SHRA SCT030 FEW040CB OVC050
TEMPO 2120/2122 05005KT 9999 SCT030 BKN060

Example: see airport list